Time,TemperatureF,DewpointF,PressureIn,WindDirection,WindDirectionDegrees,WindSpeedMPH,WindSpeedGustMPH,Humidity,HourlyPrecipIn,Conditions,Clouds,dailyrainin,SoftwareType,DateUTC
2013-11-30 00:00:00,45.7,42.1,30.17,NNE,13,0.0,1.0,87,0.00,,,0.00,Wunderground v.1.15,2013-11-30 08:00:00,
2013-11-30 00:05:00,45.6,41.7,30.17,NNE,13,0.0,1.0,86,0.00,,,0.00,Wunderground v.1.15,2013-11-30 08:05:00,
2013-11-30 00:10:00,45.5,41.9,30.17,NNE,21,0.0,1.0,87,0.00,,,0.00,Wunderground v.1.15,2013-11-30 08:10:00,
2013-11-30 00:20:00,45.4,42.1,30.17,NNE,24,0.0,1.0,88,0.00,,,0.00,Wunderground v.1.15,2013-11-30 08:20:00,
2013-11-30 00:30:00,45.2,41.6,30.17,North,360,0.0,1.0,87,0.00,,,0.00,Wunderground v.1.15,2013-11-30 08:30:00,
2013-11-30 00:40:00,45.1,41.5,30.16,North,5,0.0,1.0,87,0.00,,,0.00,Wunderground v.1.15,2013-11-30 08:40:00,
2013-11-30 00:45:00,45.0,41.4,30.17,North,5,0.0,1.0,87,0.00,,,0.00,Wunderground v.1.15,2013-11-30 08:45:00,
2013-11-30 00:54:00,44.7,41.4,30.17,North,5,0.0,1.0,88,0.00,,,0.00,Wunderground v.1.15,2013-11-30 08:54:00,
2013-11-30 01:00:00,44.5,41.2,30.17,NNE,15,0.0,1.0,88,0.00,,,0.00,Wunderground v.1.15,2013-11-30 09:00:00,
2013-11-30 01:10:00,44.2,40.9,30.16,North,5,0.0,1.0,88,0.00,,,0.00,Wunderground v.1.15,2013-11-30 09:10:00,
2013-11-30 01:15:00,44.1,40.8,30.17,NNW,331,1.0,1.0,88,0.00,,,0.00,Wunderground v.1.15,2013-11-30 09:15:00,
2013-11-30 01:25:00,44.0,41.0,30.17,NNW,331,0.0,1.0,89,0.00,,,0.00,Wunderground v.1.15,2013-11-30 09:25:00,
2013-11-30 01:35:00,44.0,41.0,30.17,North,360,0.0,1.0,89,0.00,,,0.00,Wunderground v.1.15,2013-11-30 09:35:00,
2013-11-30 01:45:00,43.8,40.8,30.17,North,360,0.0,1.0,89,0.00,,,0.00,Wunderground v.1.15,2013-11-30 09:45:00,
2013-11-30 01:50:00,43.8,40.8,30.16,North,360,0.0,1.0,89,0.00,,,0.00,Wunderground v.1.15,2013-11-30 09:50:00,
2013-11-30 02:00:00,43.6,40.6,30.16,NNE,12,1.0,1.0,89,0.00,,,0.00,Wunderground v.1.15,2013-11-30 10:00:00,
2013-11-30 02:10:00,43.5,40.8,30.16,NNE,12,0.0,1.0,90,0.00,,,0.00,Wunderground v.1.15,2013-11-30 10:10:00,
2013-11-30 02:19:00,43.5,40.8,30.16,NNE,12,0.0,1.0,90,0.00,,,0.00,Wunderground v.1.15,2013-11-30 10:19:00,
2013-11-30 02:25:00,43.4,40.7,30.16,NNE,12,0.0,1.0,90,0.00,,,0.00,Wunderground v.1.15,2013-11-30 10:25:00,
2013-11-30 02:30:00,43.2,40.5,30.16,NNE,12,0.0,1.0,90,0.00,,,0.00,Wunderground v.1.15,2013-11-30 10:30:00,
2013-11-30 02:40:00,42.9,40.2,30.16,NNE,12,0.0,1.0,90,0.00,,,0.00,Wunderground v.1.15,2013-11-30 10:40:00,
2013-11-30 02:45:00,42.8,40.1,30.16,NNE,12,0.0,1.0,90,0.00,,,0.00,Wunderground v.1.15,2013-11-30 10:45:00,
2013-11-30 02:50:00,42.6,39.9,30.16,NNE,12,0.0,1.0,90,0.00,,,0.00,Wunderground v.1.15,2013-11-30 10:50:00,
2013-11-30 03:00:00,42.4,39.7,30.16,NNE,12,0.0,1.0,90,0.00,,,0.00,Wunderground v.1.15,2013-11-30 11:00:00,
2013-11-30 03:05:00,42.3,39.6,30.16,NNE,12,0.0,1.0,90,0.00,,,0.00,Wunderground v.1.15,2013-11-30 11:05:00,
2013-11-30 03:15:00,42.2,39.8,30.16,NNE,12,0.0,1.0,91,0.00,,,0.00,Wunderground v.1.15,2013-11-30 11:15:00,
2013-11-30 03:24:00,42.1,39.7,30.16,NNE,12,0.0,1.0,91,0.00,,,0.00,Wunderground v.1.15,2013-11-30 11:24:00,
2013-11-30 03:30:00,42.0,39.6,30.15,NNE,12,0.0,1.0,91,0.00,,,0.00,Wunderground v.1.15,2013-11-30 11:30:00,
2013-11-30 03:39:00,42.0,39.6,30.16,NNE,12,0.0,1.0,91,0.00,,,0.00,Wunderground v.1.15,2013-11-30 11:39:00,
2013-11-30 03:45:00,42.0,39.8,30.16,NNE,12,0.0,1.0,92,0.00,,,0.00,Wunderground v.1.15,2013-11-30 11:45:00,
2013-11-30 03:55:00,41.8,39.4,30.16,NNE,12,0.0,1.0,91,0.00,,,0.00,Wunderground v.1.15,2013-11-30 11:55:00,
2013-11-30 04:04:00,41.6,39.2,30.16,NNE,12,0.0,1.0,91,0.00,,,0.00,Wunderground v.1.15,2013-11-30 12:04:00,
2013-11-30 04:09:00,41.5,39.1,30.15,NNE,12,0.0,1.0,91,0.00,,,0.00,Wunderground v.1.15,2013-11-30 12:09:00,
2013-11-30 04:15:00,41.2,38.8,30.15,NNE,12,0.0,1.0,91,0.00,,,0.00,Wunderground v.1.15,2013-11-30 12:15:00,
2013-11-30 04:20:00,41.2,38.8,30.15,NNE,12,0.0,1.0,91,0.00,,,0.00,Wunderground v.1.15,2013-11-30 12:20:00,
2013-11-30 04:29:00,40.9,38.5,30.15,NNE,12,0.0,1.0,91,0.00,,,0.00,Wunderground v.1.15,2013-11-30 12:29:00,
2013-11-30 04:35:00,40.8,38.7,30.15,NNE,12,0.0,1.0,92,0.00,,,0.00,Wunderground v.1.15,2013-11-30 12:35:00,
2013-11-30 04:45:00,40.8,38.9,30.15,NNE,12,0.0,1.0,93,0.00,,,0.00,Wunderground v.1.15,2013-11-30 12:45:00,
2013-11-30 04:55:00,40.7,38.6,30.16,NNW,346,1.0,1.0,92,0.00,,,0.00,Wunderground v.1.15,2013-11-30 12:55:00,
2013-11-30 05:00:00,40.8,38.9,30.16,NNW,346,0.0,1.0,93,0.00,,,0.00,Wunderground v.1.15,2013-11-30 13:00:00,
2013-11-30 05:05:00,40.8,38.9,30.16,NNW,346,0.0,1.0,93,0.00,,,0.00,Wunderground v.1.15,2013-11-30 13:05:00,
2013-11-30 05:15:00,40.9,39.0,30.16,NNW,346,0.0,1.0,93,0.00,,,0.00,Wunderground v.1.15,2013-11-30 13:15:00,
2013-11-30 05:24:00,40.6,38.5,30.16,NNW,346,0.0,1.0,92,0.00,,,0.00,Wunderground v.1.15,2013-11-30 13:24:00,
2013-11-30 05:30:00,40.6,38.5,30.16,NNW,345,0.0,1.0,92,0.00,,,0.00,Wunderground v.1.15,2013-11-30 13:30:00,
2013-11-30 05:39:00,40.5,38.6,30.16,NNW,345,0.0,1.0,93,0.00,,,0.00,Wunderground v.1.15,2013-11-30 13:39:00,
2013-11-30 05:45:00,40.4,38.5,30.16,NNW,345,1.0,2.0,93,0.00,,,0.00,Wunderground v.1.15,2013-11-30 13:45:00,
2013-11-30 05:50:00,40.4,38.5,30.17,NNW,345,1.0,2.0,93,0.00,,,0.00,Wunderground v.1.15,2013-11-30 13:50:00,
2013-11-30 06:00:00,40.6,39.0,30.17,NNW,344,0.0,1.0,94,0.00,,,0.00,Wunderground v.1.15,2013-11-30 14:00:00,
2013-11-30 06:05:00,40.7,39.1,30.17,NNW,344,0.0,1.0,94,0.00,,,0.00,Wunderground v.1.15,2013-11-30 14:05:00,
2013-11-30 06:10:00,40.7,38.8,30.17,NNW,344,0.0,1.0,93,0.00,,,0.00,Wunderground v.1.15,2013-11-30 14:10:00,
2013-11-30 06:20:00,40.5,38.6,30.17,NNW,344,0.0,1.0,93,0.00,,,0.00,Wunderground v.1.15,2013-11-30 14:20:00,
2013-11-30 06:25:00,40.4,38.5,30.17,NNW,344,0.0,1.0,93,0.00,,,0.00,Wunderground v.1.15,2013-11-30 14:25:00,
2013-11-30 06:35:00,40.3,38.4,30.18,NNW,340,0.0,1.0,93,0.00,,,0.00,Wunderground v.1.15,2013-11-30 14:35:00,
2013-11-30 06:40:00,40.3,38.4,30.18,NNW,340,0.0,1.0,93,0.00,,,0.00,Wunderground v.1.15,2013-11-30 14:40:00,
2013-11-30 06:45:00,40.3,38.4,30.18,NNW,340,0.0,1.0,93,0.00,,,0.00,Wunderground v.1.15,2013-11-30 14:45:00,
2013-11-30 06:55:00,40.2,38.3,30.18,NNW,340,0.0,1.0,93,0.00,,,0.00,Wunderground v.1.15,2013-11-30 14:55:00,
2013-11-30 07:00:00,40.3,38.7,30.18,NNW,340,1.0,1.0,94,0.00,,,0.00,Wunderground v.1.15,2013-11-30 15:00:00,
2013-11-30 07:09:00,40.5,38.9,30.18,NNW,340,0.0,1.0,94,0.00,,,0.00,Wunderground v.1.15,2013-11-30 15:09:00,
2013-11-30 07:15:00,40.5,38.9,30.18,NNW,340,0.0,1.0,94,0.00,,,0.00,Wunderground v.1.15,2013-11-30 15:15:00,
2013-11-30 07:25:00,40.8,39.2,30.19,NNW,340,0.0,1.0,94,0.00,,,0.00,Wunderground v.1.15,2013-11-30 15:25:00,
2013-11-30 07:30:00,41.1,39.8,30.19,NNW,340,0.0,1.0,95,0.00,,,0.00,Wunderground v.1.15,2013-11-30 15:30:00,
2013-11-30 07:40:00,41.7,40.4,30.19,NNW,340,0.0,1.0,95,0.00,,,0.00,Wunderground v.1.15,2013-11-30 15:40:00,
2013-11-30 07:45:00,41.9,40.6,30.19,NNW,340,0.0,1.0,95,0.00,,,0.00,Wunderground v.1.15,2013-11-30 15:45:00,
2013-11-30 07:55:00,42.7,41.4,30.19,NNW,340,0.0,1.0,95,0.00,,,0.00,Wunderground v.1.15,2013-11-30 15:55:00,
2013-11-30 08:00:00,43.3,42.2,30.19,NNW,340,0.0,1.0,96,0.00,,,0.00,Wunderground v.1.15,2013-11-30 16:00:00,
2013-11-30 08:05:00,43.9,42.8,30.19,NNW,340,0.0,1.0,96,0.00,,,0.00,Wunderground v.1.15,2013-11-30 16:05:00,
2013-11-30 08:15:00,44.7,43.4,30.19,NNW,340,0.0,1.0,95,0.00,,,0.00,Wunderground v.1.15,2013-11-30 16:15:00,
2013-11-30 08:24:00,45.6,44.0,30.19,NNW,340,0.0,1.0,94,0.00,,,0.00,Wunderground v.1.15,2013-11-30 16:24:00,
2013-11-30 08:30:00,46.2,44.6,30.19,NNW,340,0.0,1.0,94,0.00,,,0.00,Wunderground v.1.15,2013-11-30 16:30:00,
2013-11-30 08:39:00,48.0,44.9,30.19,NNW,340,0.0,1.0,89,0.00,,,0.00,Wunderground v.1.15,2013-11-30 16:39:00,
2013-11-30 08:45:00,49.3,45.6,30.19,East,92,0.0,2.0,87,0.00,,,0.00,Wunderground v.1.15,2013-11-30 16:45:00,
2013-11-30 08:54:00,53.8,45.7,30.19,ESE,106,1.0,1.0,74,0.00,,,0.00,Wunderground v.1.15,2013-11-30 16:54:00,
2013-11-30 09:00:00,55.5,45.9,30.19,ESE,106,0.0,1.0,70,0.00,,,0.00,Wunderground v.1.15,2013-11-30 17:00:00,
2013-11-30 09:10:00,58.1,45.6,30.19,ESE,106,0.0,1.0,63,0.00,,,0.00,Wunderground v.1.15,2013-11-30 17:10:00,
2013-11-30 09:15:00,59.2,45.8,30.19,ESE,106,0.0,1.0,61,0.00,,,0.00,Wunderground v.1.15,2013-11-30 17:15:00,
2013-11-30 09:25:00,61.0,44.2,30.19,ESE,106,0.0,1.0,54,0.00,,,0.00,Wunderground v.1.15,2013-11-30 17:25:00,
2013-11-30 09:34:00,63.0,43.0,30.19,ENE,61,0.0,1.0,48,0.00,,,0.00,Wunderground v.1.15,2013-11-30 17:34:00,
2013-11-30 09:39:00,64.0,44.4,30.19,ENE,61,0.0,1.0,49,0.00,,,0.00,Wunderground v.1.15,2013-11-30 17:39:00,
2013-11-30 09:50:00,65.7,43.8,30.18,ENE,61,0.0,1.0,45,0.00,,,0.00,Wunderground v.1.15,2013-11-30 17:50:00,
2013-11-30 10:00:00,67.2,42.0,30.18,ENE,61,0.0,1.0,40,0.00,,,0.00,Wunderground v.1.15,2013-11-30 18:00:00,
2013-11-30 10:05:00,67.8,45.1,30.18,East,90,0.0,2.0,44,0.00,,,0.00,Wunderground v.1.15,2013-11-30 18:05:00,
2013-11-30 10:10:00,67.7,43.1,30.18,ESE,123,1.0,1.0,41,0.00,,,0.00,Wunderground v.1.15,2013-11-30 18:10:00,
2013-11-30 10:19:00,68.1,42.2,30.17,SSE,153,1.0,1.0,39,0.00,,,0.00,Wunderground v.1.15,2013-11-30 18:19:00,
2013-11-30 10:25:00,68.0,42.8,30.17,SSE,153,1.0,1.0,40,0.00,,,0.00,Wunderground v.1.15,2013-11-30 18:25:00,
2013-11-30 10:30:00,68.4,44.4,30.17,SSE,155,0.0,1.0,42,0.00,,,0.00,Wunderground v.1.15,2013-11-30 18:30:00,
2013-11-30 10:40:00,69.1,45.7,30.17,South,182,1.0,1.0,43,0.00,,,0.00,Wunderground v.1.15,2013-11-30 18:40:00,
2013-11-30 10:45:00,69.6,42.9,30.16,WSW,239,0.0,1.0,38,0.00,,,0.00,Wunderground v.1.15,2013-11-30 18:45:00,
2013-11-30 10:55:00,70.1,41.2,30.16,West,273,1.0,3.0,35,0.00,,,0.00,Wunderground v.1.15,2013-11-30 18:55:00,
2013-11-30 11:00:00,70.3,41.3,30.16,WSW,255,2.0,2.0,35,0.00,,,0.00,Wunderground v.1.15,2013-11-30 19:00:00,
2013-11-30 11:09:00,70.7,42.4,30.15,SW,236,1.0,3.0,36,0.00,,,0.00,Wunderground v.1.15,2013-11-30 19:09:00,
2013-11-30 11:19:00,71.8,42.7,30.14,WNW,284,2.0,3.0,35,0.00,,,0.00,Wunderground v.1.15,2013-11-30 19:19:00,
2013-11-30 11:25:00,72.2,41.5,30.13,WSW,250,2.0,3.0,33,0.00,,,0.00,Wunderground v.1.15,2013-11-30 19:25:00,
2013-11-30 11:30:00,72.5,41.0,30.13,NNW,331,2.0,2.0,32,0.00,,,0.00,Wunderground v.1.15,2013-11-30 19:30:00,
2013-11-30 11:35:00,72.9,42.9,30.13,NW,311,1.0,2.0,34,0.00,,,0.00,Wunderground v.1.15,2013-11-30 19:35:00,
2013-11-30 11:45:00,73.9,39.6,30.12,ENE,73,3.0,3.0,29,0.00,,,0.00,Wunderground v.1.15,2013-11-30 19:45:00,
2013-11-30 11:55:00,74.5,39.2,30.11,ESE,109,5.0,8.0,28,0.00,,,0.00,Wunderground v.1.15,2013-11-30 19:55:00,
2013-11-30 12:05:00,74.8,38.6,30.11,ENE,73,6.0,9.0,27,0.00,,,0.00,Wunderground v.1.15,2013-11-30 20:05:00,
2013-11-30 12:15:00,75.4,39.1,30.10,ENE,69,4.0,11.0,27,0.00,,,0.00,Wunderground v.1.15,2013-11-30 20:15:00,
2013-11-30 12:25:00,75.9,38.5,30.10,South,175,4.0,5.0,26,0.00,,,0.00,Wunderground v.1.15,2013-11-30 20:25:00,
2013-11-30 12:34:00,75.8,37.5,30.10,ESE,115,6.0,9.0,25,0.00,,,0.00,Wunderground v.1.15,2013-11-30 20:34:00,
2013-11-30 12:40:00,75.9,38.5,30.09,NE,53,5.0,5.0,26,0.00,,,0.00,Wunderground v.1.15,2013-11-30 20:40:00,
2013-11-30 12:50:00,76.2,37.8,30.09,ENE,62,5.0,10.0,25,0.00,,,0.00,Wunderground v.1.15,2013-11-30 20:50:00,
2013-11-30 12:59:00,76.2,37.8,30.08,NE,46,6.0,6.0,25,0.00,,,0.00,Wunderground v.1.15,2013-11-30 20:59:00,
2013-11-30 13:05:00,76.2,36.8,30.08,ENE,74,6.0,6.0,24,0.00,,,0.00,Wunderground v.1.15,2013-11-30 21:05:00,
2013-11-30 13:14:00,76.4,38.0,30.08,East,84,5.0,11.0,25,0.00,,,0.00,Wunderground v.1.15,2013-11-30 21:14:00,
2013-11-30 13:19:00,76.7,37.2,30.08,East,80,5.0,5.0,24,0.00,,,0.00,Wunderground v.1.15,2013-11-30 21:19:00,
2013-11-30 13:25:00,76.8,37.3,30.07,ESE,117,4.0,5.0,24,0.00,,,0.00,Wunderground v.1.15,2013-11-30 21:25:00,
2013-11-30 13:30:00,77.1,37.5,30.07,East,90,4.0,5.0,24,0.00,,,0.00,Wunderground v.1.15,2013-11-30 21:30:00,
2013-11-30 13:40:00,77.0,36.3,30.07,SSE,150,5.0,5.0,23,0.00,,,0.00,Wunderground v.1.15,2013-11-30 21:40:00,
2013-11-30 13:50:00,76.8,37.3,30.06,East,84,5.0,5.0,24,0.00,,,0.00,Wunderground v.1.15,2013-11-30 21:50:00,
2013-11-30 13:55:00,76.7,36.1,30.06,East,79,5.0,6.0,23,0.00,,,0.00,Wunderground v.1.15,2013-11-30 21:55:00,
2013-11-30 14:00:00,76.6,37.1,30.06,ENE,67,6.0,6.0,24,0.00,,,0.00,Wunderground v.1.15,2013-11-30 22:00:00,
2013-11-30 14:10:00,76.2,36.8,30.06,ENE,72,6.0,6.0,24,0.00,,,0.00,Wunderground v.1.15,2013-11-30 22:10:00,
2013-11-30 14:15:00,76.0,36.6,30.06,SE,132,7.0,7.0,24,0.00,,,0.00,Wunderground v.1.15,2013-11-30 22:15:00,
2013-11-30 14:20:00,76.0,36.6,30.06,East,101,6.0,14.0,24,0.00,,,0.00,Wunderground v.1.15,2013-11-30 22:20:00,
2013-11-30 14:25:00,75.7,36.3,30.06,ENE,64,5.0,14.0,24,0.00,,,0.00,Wunderground v.1.15,2013-11-30 22:25:00,
2013-11-30 14:34:00,75.1,35.8,30.07,NNE,13,5.0,5.0,24,0.00,,,0.00,Wunderground v.1.15,2013-11-30 22:34:00,
2013-11-30 14:40:00,74.9,35.7,30.07,ENE,74,5.0,5.0,24,0.00,,,0.00,Wunderground v.1.15,2013-11-30 22:40:00,
2013-11-30 14:45:00,74.7,35.5,30.07,SE,131,4.0,5.0,24,0.00,,,0.00,Wunderground v.1.15,2013-11-30 22:45:00,
2013-11-30 14:55:00,74.4,35.2,30.07,ESE,115,6.0,7.0,24,0.00,,,0.00,Wunderground v.1.15,2013-11-30 22:55:00,
2013-11-30 15:00:00,74.3,35.2,30.07,East,90,6.0,6.0,24,0.00,,,0.00,Wunderground v.1.15,2013-11-30 23:00:00,
2013-11-30 15:10:00,74.1,36.0,30.07,SSE,154,5.0,9.0,25,0.00,,,0.00,Wunderground v.1.15,2013-11-30 23:10:00,
2013-11-30 15:15:00,73.4,40.9,30.07,SSE,150,6.0,9.0,31,0.00,,,0.00,Wunderground v.1.15,2013-11-30 23:15:00,
2013-11-30 15:24:00,72.3,42.3,30.07,SE,138,4.0,6.0,34,0.00,,,0.00,Wunderground v.1.15,2013-11-30 23:24:00,
2013-11-30 15:29:00,72.0,39.7,30.07,South,186,2.0,5.0,31,0.00,,,0.00,Wunderground v.1.15,2013-11-30 23:29:00,
2013-11-30 15:40:00,71.5,40.1,30.07,SW,217,2.0,2.0,32,0.00,,,0.00,Wunderground v.1.15,2013-11-30 23:40:00,
2013-11-30 15:45:00,71.6,40.2,30.08,SW,220,2.0,2.0,32,0.00,,,0.00,Wunderground v.1.15,2013-11-30 23:45:00,
2013-11-30 15:55:00,71.5,40.1,30.08,SSW,211,4.0,4.0,32,0.00,,,0.00,Wunderground v.1.15,2013-11-30 23:55:00,
2013-11-30 16:05:00,70.5,41.5,30.08,SW,231,3.0,4.0,35,0.00,,,0.00,Wunderground v.1.15,2013-12-01 00:05:00,
2013-11-30 16:10:00,70.1,41.2,30.08,WSW,250,4.0,4.0,35,0.00,,,0.00,Wunderground v.1.15,2013-12-01 00:10:00,
2013-11-30 16:15:00,69.8,41.6,30.09,WSW,250,4.0,4.0,36,0.00,,,0.00,Wunderground v.1.15,2013-12-01 00:15:00,
2013-11-30 16:25:00,69.7,42.9,30.09,SW,234,3.0,4.0,38,0.00,,,0.00,Wunderground v.1.15,2013-12-01 00:25:00,
2013-11-30 16:35:00,68.7,44.0,30.09,WSW,253,1.0,2.0,41,0.00,,,0.00,Wunderground v.1.15,2013-12-01 00:35:00,
2013-11-30 16:40:00,67.8,43.9,30.09,WSW,256,1.0,1.0,42,0.00,,,0.00,Wunderground v.1.15,2013-12-01 00:40:00,
2013-11-30 16:50:00,65.9,42.8,30.09,North,355,0.0,1.0,43,0.00,,,0.00,Wunderground v.1.15,2013-12-01 00:50:00,
2013-11-30 17:00:00,64.0,43.9,30.10,North,5,0.0,1.0,48,0.00,,,0.00,Wunderground v.1.15,2013-12-01 01:00:00,
2013-11-30 17:10:00,62.4,46.0,30.10,WNW,283,0.0,1.0,55,0.00,,,0.00,Wunderground v.1.15,2013-12-01 01:10:00,
2013-11-30 17:19:00,60.9,44.1,30.10,WNW,283,0.0,1.0,54,0.00,,,0.00,Wunderground v.1.15,2013-12-01 01:19:00,
2013-11-30 17:24:00,60.0,44.3,30.10,WNW,287,0.0,1.0,56,0.00,,,0.00,Wunderground v.1.15,2013-12-01 01:24:00,
2013-11-30 17:34:00,58.5,44.7,30.11,WNW,287,0.0,1.0,60,0.00,,,0.00,Wunderground v.1.15,2013-12-01 01:34:00,
2013-11-30 17:40:00,57.7,44.3,30.11,WNW,287,0.0,1.0,61,0.00,,,0.00,Wunderground v.1.15,2013-12-01 01:40:00,
2013-11-30 17:49:00,56.4,44.8,30.11,WNW,288,0.0,1.0,65,0.00,,,0.00,Wunderground v.1.15,2013-12-01 01:49:00,
2013-11-30 17:55:00,55.8,45.0,30.11,WNW,290,0.0,1.0,67,0.00,,,0.00,Wunderground v.1.15,2013-12-01 01:55:00,
2013-11-30 18:00:00,55.3,44.5,30.11,North,11,0.0,1.0,67,0.00,,,0.00,Wunderground v.1.15,2013-12-01 02:00:00,
2013-11-30 18:10:00,54.3,43.6,30.11,NNW,342,1.0,1.0,67,0.00,,,0.00,Wunderground v.1.15,2013-12-01 02:10:00,
2013-11-30 18:15:00,53.9,43.6,30.11,NNW,327,1.0,2.0,68,0.00,,,0.00,Wunderground v.1.15,2013-12-01 02:15:00,
2013-11-30 18:24:00,53.3,43.8,30.12,North,355,1.0,1.0,70,0.00,,,0.00,Wunderground v.1.15,2013-12-01 02:24:00,
2013-11-30 18:30:00,52.8,43.7,30.12,North,355,0.0,1.0,71,0.00,,,0.00,Wunderground v.1.15,2013-12-01 02:30:00,
2013-11-30 18:35:00,52.4,44.0,30.13,North,355,0.0,1.0,73,0.00,,,0.00,Wunderground v.1.15,2013-12-01 02:35:00,
2013-11-30 18:45:00,51.6,43.2,30.13,NW,326,0.0,1.0,73,0.00,,,0.00,Wunderground v.1.15,2013-12-01 02:45:00,
2013-11-30 18:50:00,51.3,43.3,30.13,NW,326,0.0,1.0,74,0.00,,,0.00,Wunderground v.1.15,2013-12-01 02:50:00,
2013-11-30 19:00:00,50.6,42.3,30.13,NW,326,0.0,1.0,73,0.00,,,0.00,Wunderground v.1.15,2013-12-01 03:00:00,
2013-11-30 19:10:00,49.8,42.2,30.14,NNW,335,1.0,1.0,75,0.00,,,0.00,Wunderground v.1.15,2013-12-01 03:10:00,
2013-11-30 19:20:00,49.5,41.9,30.14,NNW,335,0.0,1.0,75,0.00,,,0.00,Wunderground v.1.15,2013-12-01 03:20:00,
2013-11-30 19:25:00,49.4,42.8,30.14,NNW,335,0.0,1.0,78,0.00,,,0.00,Wunderground v.1.15,2013-12-01 03:25:00,
2013-11-30 19:35:00,48.8,41.9,30.15,NNW,335,0.0,1.0,77,0.00,,,0.00,Wunderground v.1.15,2013-12-01 03:35:00,
2013-11-30 19:40:00,48.5,42.0,30.15,NNW,333,0.0,1.0,78,0.00,,,0.00,Wunderground v.1.15,2013-12-01 03:40:00,
2013-11-30 19:50:00,48.0,41.8,30.15,NNW,333,1.0,1.0,79,0.00,,,0.00,Wunderground v.1.15,2013-12-01 03:50:00,
2013-11-30 20:00:00,47.5,41.6,30.15,NW,321,0.0,1.0,80,0.00,,,0.00,Wunderground v.1.15,2013-12-01 04:00:00,
2013-11-30 20:10:00,47.5,41.6,30.16,NW,321,0.0,1.0,80,0.00,,,0.00,Wunderground v.1.15,2013-12-01 04:10:00,
2013-11-30 20:15:00,47.4,41.9,30.16,NW,321,0.0,1.0,81,0.00,,,0.00,Wunderground v.1.15,2013-12-01 04:15:00,
2013-11-30 20:25:00,46.9,41.4,30.15,NNW,347,0.0,1.0,81,0.00,,,0.00,Wunderground v.1.15,2013-12-01 04:25:00,
2013-11-30 20:35:00,46.4,41.2,30.15,NNW,336,0.0,3.0,82,0.00,,,0.00,Wunderground v.1.15,2013-12-01 04:35:00,
2013-11-30 20:45:00,45.7,40.8,30.16,NNW,336,0.0,1.0,83,0.00,,,0.00,Wunderground v.1.15,2013-12-01 04:45:00,
2013-11-30 20:54:00,45.3,40.7,30.16,NNW,336,0.0,1.0,84,0.00,,,0.00,Wunderground v.1.15,2013-12-01 04:54:00,
2013-11-30 21:00:00,45.2,41.0,30.16,NNW,336,0.0,2.0,85,0.00,,,0.00,Wunderground v.1.15,2013-12-01 05:00:00,
2013-11-30 21:05:00,45.1,40.6,30.16,NNW,327,1.0,2.0,84,0.00,,,0.00,Wunderground v.1.15,2013-12-01 05:05:00,
2013-11-30 21:09:00,45.1,40.6,30.16,NW,316,1.0,1.0,84,0.00,,,0.00,Wunderground v.1.15,2013-12-01 05:09:00,
2013-11-30 21:14:00,45.0,40.5,30.16,NW,315,1.0,2.0,84,0.00,,,0.00,Wunderground v.1.15,2013-12-01 05:14:00,
2013-11-30 21:19:00,45.1,40.2,30.16,NW,313,1.0,1.0,83,0.00,,,0.00,Wunderground v.1.15,2013-12-01 05:19:00,
2013-11-30 21:25:00,45.1,40.2,30.16,NW,313,0.0,1.0,83,0.00,,,0.00,Wunderground v.1.15,2013-12-01 05:25:00,
2013-11-30 21:34:00,45.0,40.1,30.17,NW,316,1.0,1.0,83,0.00,,,0.00,Wunderground v.1.15,2013-12-01 05:34:00,
2013-11-30 21:40:00,44.8,40.0,30.16,NW,325,1.0,2.0,83,0.00,,,0.00,Wunderground v.1.15,2013-12-01 05:40:00,
2013-11-30 21:45:00,44.7,39.9,30.17,NW,324,2.0,2.0,83,0.00,,,0.00,Wunderground v.1.15,2013-12-01 05:45:00,
2013-11-30 21:50:00,44.7,40.2,30.16,NNW,327,2.0,3.0,84,0.00,,,0.00,Wunderground v.1.15,2013-12-01 05:50:00,
2013-11-30 21:55:00,44.8,40.0,30.17,NNW,327,2.0,3.0,83,0.00,,,0.00,Wunderground v.1.15,2013-12-01 05:55:00,
2013-11-30 22:00:00,45.0,40.8,30.17,NNW,327,1.0,1.0,85,0.00,,,0.00,Wunderground v.1.15,2013-12-01 06:00:00,
2013-11-30 22:10:00,45.3,40.4,30.17,North,360,0.0,1.0,83,0.00,,,0.00,Wunderground v.1.15,2013-12-01 06:10:00,
2013-11-30 22:19:00,45.0,40.1,30.17,North,360,0.0,1.0,83,0.00,,,0.00,Wunderground v.1.15,2013-12-01 06:19:00,
2013-11-30 22:25:00,44.5,39.3,30.17,NNW,346,1.0,3.0,82,0.00,,,0.00,Wunderground v.1.15,2013-12-01 06:25:00,
2013-11-30 22:34:00,44.3,39.5,30.17,NW,325,3.0,3.0,83,0.00,,,0.00,Wunderground v.1.15,2013-12-01 06:34:00,
2013-11-30 22:40:00,44.4,39.6,30.17,NW,321,2.0,2.0,83,0.00,,,0.00,Wunderground v.1.15,2013-12-01 06:40:00,
2013-11-30 22:50:00,44.3,39.5,30.17,NW,321,0.0,1.0,83,0.00,,,0.00,Wunderground v.1.15,2013-12-01 06:50:00,
2013-11-30 23:00:00,44.2,39.4,30.17,NW,325,0.0,3.0,83,0.00,,,0.00,Wunderground v.1.15,2013-12-01 07:00:00,
2013-11-30 23:10:00,43.9,39.4,30.17,NNW,327,0.0,1.0,84,0.00,,,0.00,Wunderground v.1.15,2013-12-01 07:10:00,
2013-11-30 23:19:00,43.4,38.9,30.18,NNW,327,0.0,1.0,84,0.00,,,0.00,Wunderground v.1.15,2013-12-01 07:19:00,
2013-11-30 23:24:00,43.3,39.1,30.18,NNW,327,0.0,1.0,85,0.00,,,0.00,Wunderground v.1.15,2013-12-01 07:24:00,
2013-11-30 23:35:00,43.0,39.1,30.18,NNW,327,0.0,1.0,86,0.00,,,0.00,Wunderground v.1.15,2013-12-01 07:35:00,
2013-11-30 23:44:00,42.8,38.9,30.18,NNW,327,0.0,1.0,86,0.00,,,0.00,Wunderground v.1.15,2013-12-01 07:44:00,
2013-11-30 23:50:00,42.7,38.8,30.17,NW,320,1.0,2.0,86,0.00,,,0.00,Wunderground v.1.15,2013-12-01 07:50:00,
2013-11-30 23:55:00,42.7,38.8,30.17,NW,314,2.0,2.0,86,0.00,,,0.00,Wunderground v.1.15,2013-12-01 07:55:00,